Al Ahsa Airport
OEAH : now visible

Airfield :











YOU CAN JOIN US ON...

 
LOGIN :

Register | Disclaimer

   EN    FR    IT 

 









Legend :    VFR   Marginal VFR   IFR   Intensive IFR   Very Intensive IFR
Visi :
Ceiling :
>= 8 km
>= 3000ft
5 to 8 km
1000 to 3000 ft
1500m to 5 km
500 to 1000 ft
800 to 1500m
200 to 500 ft
< 800m
< 200 ft
Symbols :   Thunderstorms  Fog  Heavy snow  Heavy precipitations  Wind > 20 kt






- Airport Elevation : 588 ft
- IATA code : HOF


OEAH - Al Ahsa

CURRENT METAR :
  • 070800Z 36026KT CAVOK 44/00 Q1003 NOSIG

EXPIRED METARs :
  • 070700Z 36024KT CAVOK 43/00 Q1003 NOSIG
  • 070600Z 35022KT CAVOK 41/00 Q1004 NOSIG

TAF TAF OEAH
Valid from the 06 at 12:00 until the 07 at 18:00 UTC


061100Z 0612/0718 36020KT 5000 BLDU NSC
TEMPO 0612/0620 3000 BLSA
PROB40
TEMPO 0612/0616 1000
BECMG 0620/0622 30013KT 7000 NSC
OBBB FIR / Asia



MET'MAP, your aeronautical weather chart ! - Copyright ORBIFLY December 2007 - Disclaimer

ORBIFLY MET'MAP TEAM :

Programming & Development : Alexandra Zaïnal
Concept & original design : Baudouin d'Aumeries
Assistance for programming : Marc-Olivier Méhu
Technical & hardware support : Manuel Goepfert

Contact : metmap@orbifly.com




SOURCES & CREDITS :

   NOAA       Earth
Advisory